sensor_id;sensor_type;location;lat;lon;timestamp;P1;durP1;ratioP1;P2;durP2;ratioP2
71648;SDS011;59492;45.638;11.714;2023-03-12T00:01:13;3.50;;;3.00;;
71648;SDS011;59492;45.638;11.714;2023-03-12T00:03:43;4.70;;;3.40;;
71648;SDS011;59492;45.638;11.714;2023-03-12T00:06:21;5.60;;;3.20;;
71648;SDS011;59492;45.638;11.714;2023-03-12T00:13:51;6.00;;;3.50;;
71648;SDS011;59492;45.638;11.714;2023-03-12T00:16:24;5.10;;;3.40;;
71648;SDS011;59492;45.638;11.714;2023-03-12T00:18:52;4.60;;;3.60;;
71648;SDS011;59492;45.638;11.714;2023-03-12T00:21:21;5.40;;;3.50;;
71648;SDS011;59492;45.638;11.714;2023-03-12T00:23:48;3.80;;;3.10;;
71648;SDS011;59492;45.638;11.714;2023-03-12T00:26:15;4.70;;;3.20;;
71648;SDS011;59492;45.638;11.714;2023-03-12T00:28:47;5.60;;;3.50;;
71648;SDS011;59492;45.638;11.714;2023-03-12T00:31:15;4.60;;;3.50;;
71648;SDS011;59492;45.638;11.714;2023-03-12T00:33:46;8.00;;;3.30;;
71648;SDS011;59492;45.638;11.714;2023-03-12T00:36:14;6.20;;;3.30;;
71648;SDS011;59492;45.638;11.714;2023-03-12T00:38:41;3.90;;;3.30;;
71648;SDS011;59492;45.638;11.714;2023-03-12T00:44:41;3.30;;;3.00;;
71648;SDS011;59492;45.638;11.714;2023-03-12T00:47:56;4.20;;;3.10;;
71648;SDS011;59492;45.638;11.714;2023-03-12T00:50:52;5.30;;;3.10;;
71648;SDS011;59492;45.638;11.714;2023-03-12T00:57:02;3.80;;;2.90;;
71648;SDS011;59492;45.638;11.714;2023-03-12T00:59:38;3.80;;;2.90;;
71648;SDS011;59492;45.638;11.714;2023-03-12T01:02:16;4.80;;;3.30;;
71648;SDS011;59492;45.638;11.714;2023-03-12T01:05:11;4.20;;;2.90;;
71648;SDS011;59492;45.638;11.714;2023-03-12T01:08:04;3.50;;;3.00;;
71648;SDS011;59492;45.638;11.714;2023-03-12T01:10:51;3.70;;;2.80;;
71648;SDS011;59492;45.638;11.714;2023-03-12T01:13:41;4.00;;;2.90;;
71648;SDS011;59492;45.638;11.714;2023-03-12T01:16:09;4.40;;;3.30;;
71648;SDS011;59492;45.638;11.714;2023-03-12T01:18:59;5.20;;;3.20;;
71648;SDS011;59492;45.638;11.714;2023-03-12T01:21:34;3.60;;;3.00;;
71648;SDS011;59492;45.638;11.714;2023-03-12T01:24:01;3.60;;;2.90;;
71648;SDS011;59492;45.638;11.714;2023-03-12T01:26:28;3.40;;;2.90;;
71648;SDS011;59492;45.638;11.714;2023-03-12T01:28:54;4.00;;;2.80;;
71648;SDS011;59492;45.638;11.714;2023-03-12T01:31:21;5.40;;;3.40;;
71648;SDS011;59492;45.638;11.714;2023-03-12T01:39:11;4.20;;;3.00;;
71648;SDS011;59492;45.638;11.714;2023-03-12T01:41:38;5.40;;;3.50;;
71648;SDS011;59492;45.638;11.714;2023-03-12T01:44:13;4.00;;;3.00;;
71648;SDS011;59492;45.638;11.714;2023-03-12T01:46:51;3.80;;;3.30;;
71648;SDS011;59492;45.638;11.714;2023-03-12T01:52:09;4.40;;;2.90;;
71648;SDS011;59492;45.638;11.714;2023-03-12T01:57:03;3.20;;;2.80;;
71648;SDS011;59492;45.638;11.714;2023-03-12T01:59:34;3.70;;;2.90;;
71648;SDS011;59492;45.638;11.714;2023-03-12T02:02:24;3.50;;;2.90;;
71648;SDS011;59492;45.638;11.714;2023-03-12T02:09:52;3.30;;;2.90;;
71648;SDS011;59492;45.638;11.714;2023-03-12T02:12:22;3.90;;;2.70;;
71648;SDS011;59492;45.638;11.714;2023-03-12T02:14:47;4.90;;;2.90;;
71648;SDS011;59492;45.638;11.714;2023-03-12T02:17:13;7.70;;;2.70;;
71648;SDS011;59492;45.638;11.714;2023-03-12T02:22:43;3.10;;;2.80;;
71648;SDS011;59492;45.638;11.714;2023-03-12T02:25:37;3.90;;;2.50;;
71648;SDS011;59492;45.638;11.714;2023-03-12T02:30:39;3.10;;;2.70;;
71648;SDS011;59492;45.638;11.714;2023-03-12T02:33:11;3.40;;;2.80;;
71648;SDS011;59492;45.638;11.714;2023-03-12T02:38:23;4.80;;;2.90;;
71648;SDS011;59492;45.638;11.714;2023-03-12T02:41:09;3.40;;;2.50;;
71648;SDS011;59492;45.638;11.714;2023-03-12T02:43:37;3.30;;;2.70;;
71648;SDS011;59492;45.638;11.714;2023-03-12T02:46:03;4.20;;;3.00;;
71648;SDS011;59492;45.638;11.714;2023-03-12T02:48:29;3.60;;;2.50;;
71648;SDS011;59492;45.638;11.714;2023-03-12T02:50:55;5.20;;;3.00;;
71648;SDS011;59492;45.638;11.714;2023-03-12T02:53:20;4.00;;;2.70;;
71648;SDS011;59492;45.638;11.714;2023-03-12T02:55:46;3.20;;;2.50;;
71648;SDS011;59492;45.638;11.714;2023-03-12T02:58:17;3.30;;;2.70;;
71648;SDS011;59492;45.638;11.714;2023-03-12T03:04:06;3.00;;;2.30;;
71648;SDS011;59492;45.638;11.714;2023-03-12T03:06:36;3.20;;;2.40;;
71648;SDS011;59492;45.638;11.714;2023-03-12T03:09:36;2.80;;;2.50;;
71648;SDS011;59492;45.638;11.714;2023-03-12T03:12:25;3.10;;;2.50;;
71648;SDS011;59492;45.638;11.714;2023-03-12T03:15:15;2.80;;;2.50;;
71648;SDS011;59492;45.638;11.714;2023-03-12T03:18:04;3.80;;;2.40;;
71648;SDS011;59492;45.638;11.714;2023-03-12T03:20:35;3.70;;;2.80;;
71648;SDS011;59492;45.638;11.714;2023-03-12T03:23:03;2.50;;;2.20;;
71648;SDS011;59492;45.638;11.714;2023-03-12T03:25:29;4.80;;;2.70;;
71648;SDS011;59492;45.638;11.714;2023-03-12T03:28:09;3.40;;;2.50;;
71648;SDS011;59492;45.638;11.714;2023-03-12T03:30:40;3.40;;;2.90;;
71648;SDS011;59492;45.638;11.714;2023-03-12T03:33:08;3.30;;;2.40;;
71648;SDS011;59492;45.638;11.714;2023-03-12T03:35:40;3.30;;;2.30;;
71648;SDS011;59492;45.638;11.714;2023-03-12T03:38:07;2.80;;;2.50;;
71648;SDS011;59492;45.638;11.714;2023-03-12T03:40:33;3.10;;;2.60;;
71648;SDS011;59492;45.638;11.714;2023-03-12T03:43:09;3.00;;;2.40;;
71648;SDS011;59492;45.638;11.714;2023-03-12T03:45:38;3.40;;;2.40;;
71648;SDS011;59492;45.638;11.714;2023-03-12T03:48:04;3.20;;;2.30;;
71648;SDS011;59492;45.638;11.714;2023-03-12T03:50:32;4.40;;;2.40;;
71648;SDS011;59492;45.638;11.714;2023-03-12T03:53:02;2.90;;;2.20;;
71648;SDS011;59492;45.638;11.714;2023-03-12T03:55:36;2.70;;;2.10;;
71648;SDS011;59492;45.638;11.714;2023-03-12T04:00:28;3.30;;;2.40;;
71648;SDS011;59492;45.638;11.714;2023-03-12T04:02:57;3.60;;;2.40;;
71648;SDS011;59492;45.638;11.714;2023-03-12T04:05:25;3.40;;;2.50;;
71648;SDS011;59492;45.638;11.714;2023-03-12T04:07:54;3.60;;;2.00;;
71648;SDS011;59492;45.638;11.714;2023-03-12T04:10:20;3.40;;;2.40;;
71648;SDS011;59492;45.638;11.714;2023-03-12T04:12:49;3.00;;;2.30;;
71648;SDS011;59492;45.638;11.714;2023-03-12T04:15:15;2.80;;;2.50;;
71648;SDS011;59492;45.638;11.714;2023-03-12T04:20:10;2.40;;;2.20;;
71648;SDS011;59492;45.638;11.714;2023-03-12T04:22:40;2.50;;;2.30;;
71648;SDS011;59492;45.638;11.714;2023-03-12T04:25:26;3.00;;;2.30;;
71648;SDS011;59492;45.638;11.714;2023-03-12T04:27:53;2.80;;;2.50;;
71648;SDS011;59492;45.638;11.714;2023-03-12T04:35:10;2.60;;;2.20;;
71648;SDS011;59492;45.638;11.714;2023-03-12T04:37:35;3.70;;;2.30;;
71648;SDS011;59492;45.638;11.714;2023-03-12T04:40:01;3.10;;;2.60;;
71648;SDS011;59492;45.638;11.714;2023-03-12T04:42:33;2.70;;;2.40;;
71648;SDS011;59492;45.638;11.714;2023-03-12T04:47:25;2.50;;;2.00;;
71648;SDS011;59492;45.638;11.714;2023-03-12T04:49:51;2.80;;;2.40;;
71648;SDS011;59492;45.638;11.714;2023-03-12T04:52:18;2.50;;;2.10;;
71648;SDS011;59492;45.638;11.714;2023-03-12T04:54:44;2.80;;;2.40;;
71648;SDS011;59492;45.638;11.714;2023-03-12T04:57:10;2.90;;;2.30;;
71648;SDS011;59492;45.638;11.714;2023-03-12T04:59:36;2.30;;;2.10;;
71648;SDS011;59492;45.638;11.714;2023-03-12T05:02:02;2.60;;;2.30;;
71648;SDS011;59492;45.638;11.714;2023-03-12T05:04:28;2.40;;;2.10;;
71648;SDS011;59492;45.638;11.714;2023-03-12T05:06:54;3.20;;;2.30;;
71648;SDS011;59492;45.638;11.714;2023-03-12T05:09:23;3.30;;;2.40;;
71648;SDS011;59492;45.638;11.714;2023-03-12T05:11:49;2.40;;;2.20;;
71648;SDS011;59492;45.638;11.714;2023-03-12T05:14:14;3.30;;;2.30;;
71648;SDS011;59492;45.638;11.714;2023-03-12T05:16:40;2.70;;;2.30;;
71648;SDS011;59492;45.638;11.714;2023-03-12T05:19:09;2.60;;;2.20;;
71648;SDS011;59492;45.638;11.714;2023-03-12T05:21:57;3.50;;;2.40;;
71648;SDS011;59492;45.638;11.714;2023-03-12T05:25:18;2.60;;;2.10;;
71648;SDS011;59492;45.638;11.714;2023-03-12T05:27:56;2.50;;;2.20;;
71648;SDS011;59492;45.638;11.714;2023-03-12T05:30:44;2.70;;;2.20;;
71648;SDS011;59492;45.638;11.714;2023-03-12T05:34:06;3.50;;;2.10;;
71648;SDS011;59492;45.638;11.714;2023-03-12T05:39:05;2.50;;;2.00;;
71648;SDS011;59492;45.638;11.714;2023-03-12T05:41:35;2.70;;;1.90;;
71648;SDS011;59492;45.638;11.714;2023-03-12T05:44:22;2.80;;;2.20;;
71648;SDS011;59492;45.638;11.714;2023-03-12T05:46:57;2.90;;;2.30;;
71648;SDS011;59492;45.638;11.714;2023-03-12T05:49:23;2.70;;;2.20;;
71648;SDS011;59492;45.638;11.714;2023-03-12T05:52:34;2.50;;;2.20;;
71648;SDS011;59492;45.638;11.714;2023-03-12T05:57:51;2.40;;;2.00;;
71648;SDS011;59492;45.638;11.714;2023-03-12T06:00:20;2.10;;;1.90;;
71648;SDS011;59492;45.638;11.714;2023-03-12T06:02:46;2.70;;;2.10;;
71648;SDS011;59492;45.638;11.714;2023-03-12T06:05:12;2.40;;;2.10;;
71648;SDS011;59492;45.638;11.714;2023-03-12T06:12:33;2.30;;;1.90;;
71648;SDS011;59492;45.638;11.714;2023-03-12T06:15:01;3.30;;;2.10;;
71648;SDS011;59492;45.638;11.714;2023-03-12T06:17:29;2.60;;;2.30;;
71648;SDS011;59492;45.638;11.714;2023-03-12T06:22:25;2.40;;;1.90;;
71648;SDS011;59492;45.638;11.714;2023-03-12T06:27:24;2.10;;;1.80;;
71648;SDS011;59492;45.638;11.714;2023-03-12T06:30:10;2.10;;;1.80;;
71648;SDS011;59492;45.638;11.714;2023-03-12T06:32:36;4.20;;;2.10;;
71648;SDS011;59492;45.638;11.714;2023-03-12T06:35:04;3.40;;;1.70;;
71648;SDS011;59492;45.638;11.714;2023-03-12T06:37:30;2.30;;;1.70;;
71648;SDS011;59492;45.638;11.714;2023-03-12T06:39:57;2.40;;;1.80;;
71648;SDS011;59492;45.638;11.714;2023-03-12T06:44:56;2.60;;;1.80;;
71648;SDS011;59492;45.638;11.714;2023-03-12T06:47:21;2.40;;;2.00;;
71648;SDS011;59492;45.638;11.714;2023-03-12T06:49:48;1.90;;;1.70;;
71648;SDS011;59492;45.638;11.714;2023-03-12T06:54:44;2.90;;;1.90;;
71648;SDS011;59492;45.638;11.714;2023-03-12T06:57:10;2.30;;;1.90;;
71648;SDS011;59492;45.638;11.714;2023-03-12T06:59:42;2.80;;;2.00;;
71648;SDS011;59492;45.638;11.714;2023-03-12T07:02:10;2.10;;;1.80;;
71648;SDS011;59492;45.638;11.714;2023-03-12T07:04:58;1.80;;;1.60;;
71648;SDS011;59492;45.638;11.714;2023-03-12T07:07:34;1.80;;;1.50;;
71648;SDS011;59492;45.638;11.714;2023-03-12T07:10:17;2.10;;;1.90;;
71648;SDS011;59492;45.638;11.714;2023-03-12T07:12:43;5.10;;;1.80;;
71648;SDS011;59492;45.638;11.714;2023-03-12T07:15:10;3.20;;;1.90;;
71648;SDS011;59492;45.638;11.714;2023-03-12T07:18:04;2.60;;;2.00;;
71648;SDS011;59492;45.638;11.714;2023-03-12T07:20:39;2.90;;;2.30;;
71648;SDS011;59492;45.638;11.714;2023-03-12T07:23:07;3.30;;;2.00;;
71648;SDS011;59492;45.638;11.714;2023-03-12T07:25:37;2.80;;;2.00;;
71648;SDS011;59492;45.638;11.714;2023-03-12T07:28:06;3.20;;;1.60;;
71648;SDS011;59492;45.638;11.714;2023-03-12T07:30:36;4.20;;;2.10;;
71648;SDS011;59492;45.638;11.714;2023-03-12T07:33:09;3.30;;;2.20;;
71648;SDS011;59492;45.638;11.714;2023-03-12T07:35:51;3.80;;;2.00;;
71648;SDS011;59492;45.638;11.714;2023-03-12T07:38:20;4.40;;;2.10;;
71648;SDS011;59492;45.638;11.714;2023-03-12T07:40:51;3.60;;;2.00;;
71648;SDS011;59492;45.638;11.714;2023-03-12T07:43:20;3.70;;;2.20;;
71648;SDS011;59492;45.638;11.714;2023-03-12T07:45:46;3.70;;;2.00;;
71648;SDS011;59492;45.638;11.714;2023-03-12T07:48:13;3.20;;;2.00;;
71648;SDS011;59492;45.638;11.714;2023-03-12T07:50:38;4.80;;;2.10;;
71648;SDS011;59492;45.638;11.714;2023-03-12T07:53:04;3.00;;;2.20;;
71648;SDS011;59492;45.638;11.714;2023-03-12T07:55:31;2.20;;;1.80;;
71648;SDS011;59492;45.638;11.714;2023-03-12T07:57:58;3.70;;;1.80;;
71648;SDS011;59492;45.638;11.714;2023-03-12T08:00:26;4.00;;;2.10;;
71648;SDS011;59492;45.638;11.714;2023-03-12T08:03:02;2.50;;;2.00;;
71648;SDS011;59492;45.638;11.714;2023-03-12T08:05:28;5.00;;;2.10;;
71648;SDS011;59492;45.638;11.714;2023-03-12T08:07:54;4.40;;;2.20;;
71648;SDS011;59492;45.638;11.714;2023-03-12T08:10:20;2.40;;;1.90;;
71648;SDS011;59492;45.638;11.714;2023-03-12T08:12:46;4.90;;;2.40;;
71648;SDS011;59492;45.638;11.714;2023-03-12T08:15:12;7.40;;;2.00;;
71648;SDS011;59492;45.638;11.714;2023-03-12T08:17:38;4.90;;;2.20;;
71648;SDS011;59492;45.638;11.714;2023-03-12T08:20:04;2.80;;;2.10;;
71648;SDS011;59492;45.638;11.714;2023-03-12T08:22:34;2.90;;;1.70;;
71648;SDS011;59492;45.638;11.714;2023-03-12T08:25:01;4.60;;;2.10;;
71648;SDS011;59492;45.638;11.714;2023-03-12T08:27:27;4.90;;;2.20;;
71648;SDS011;59492;45.638;11.714;2023-03-12T08:29:52;6.00;;;2.20;;
71648;SDS011;59492;45.638;11.714;2023-03-12T08:32:18;3.70;;;2.20;;
71648;SDS011;59492;45.638;11.714;2023-03-12T08:34:44;2.70;;;2.10;;
71648;SDS011;59492;45.638;11.714;2023-03-12T08:37:10;2.70;;;1.80;;
71648;SDS011;59492;45.638;11.714;2023-03-12T08:39:36;3.50;;;2.00;;
71648;SDS011;59492;45.638;11.714;2023-03-12T08:42:01;4.10;;;1.90;;
71648;SDS011;59492;45.638;11.714;2023-03-12T08:44:28;4.10;;;1.80;;
71648;SDS011;59492;45.638;11.714;2023-03-12T08:46:53;7.60;;;1.90;;
71648;SDS011;59492;45.638;11.714;2023-03-12T08:49:20;3.70;;;2.00;;
71648;SDS011;59492;45.638;11.714;2023-03-12T08:51:52;7.30;;;2.10;;
71648;SDS011;59492;45.638;11.714;2023-03-12T08:54:57;4.40;;;2.00;;
71648;SDS011;59492;45.638;11.714;2023-03-12T08:57:36;5.60;;;2.50;;
71648;SDS011;59492;45.638;11.714;2023-03-12T09:00:03;7.70;;;2.70;;
71648;SDS011;59492;45.638;11.714;2023-03-12T09:02:35;10.20;;;2.50;;
71648;SDS011;59492;45.638;11.714;2023-03-12T09:05:27;5.60;;;2.60;;
71648;SDS011;59492;45.638;11.714;2023-03-12T09:07:55;5.70;;;2.20;;
71648;SDS011;59492;45.638;11.714;2023-03-12T09:10:24;5.20;;;2.10;;
71648;SDS011;59492;45.638;11.714;2023-03-12T09:12:51;6.60;;;2.30;;
71648;SDS011;59492;45.638;11.714;2023-03-12T09:15:38;3.60;;;1.80;;
71648;SDS011;59492;45.638;11.714;2023-03-12T09:18:04;13.00;;;2.40;;
71648;SDS011;59492;45.638;11.714;2023-03-12T09:20:30;5.10;;;2.20;;
71648;SDS011;59492;45.638;11.714;2023-03-12T09:22:56;3.90;;;2.10;;
71648;SDS011;59492;45.638;11.714;2023-03-12T09:25:25;5.40;;;2.30;;
71648;SDS011;59492;45.638;11.714;2023-03-12T09:27:50;8.30;;;2.50;;
71648;SDS011;59492;45.638;11.714;2023-03-12T09:30:20;7.60;;;2.30;;
71648;SDS011;59492;45.638;11.714;2023-03-12T09:32:49;7.80;;;2.60;;
71648;SDS011;59492;45.638;11.714;2023-03-12T09:35:14;5.90;;;2.30;;
71648;SDS011;59492;45.638;11.714;2023-03-12T09:37:42;7.20;;;1.90;;
71648;SDS011;59492;45.638;11.714;2023-03-12T09:40:15;4.00;;;2.20;;
71648;SDS011;59492;45.638;11.714;2023-03-12T09:42:55;3.30;;;1.80;;
71648;SDS011;59492;45.638;11.714;2023-03-12T09:51:22;4.60;;;2.30;;
71648;SDS011;59492;45.638;11.714;2023-03-12T09:54:13;8.50;;;2.10;;
71648;SDS011;59492;45.638;11.714;2023-03-12T09:57:21;3.50;;;1.70;;
71648;SDS011;59492;45.638;11.714;2023-03-12T09:59:51;6.50;;;2.10;;
71648;SDS011;59492;45.638;11.714;2023-03-12T10:02:28;4.90;;;2.10;;
71648;SDS011;59492;45.638;11.714;2023-03-12T10:06:06;3.50;;;1.90;;
71648;SDS011;59492;45.638;11.714;2023-03-12T10:11:40;6.70;;;1.90;;
71648;SDS011;59492;45.638;11.714;2023-03-12T10:26:20;5.50;;;2.10;;
71648;SDS011;59492;45.638;11.714;2023-03-12T10:32:01;3.70;;;2.40;;
71648;SDS011;59492;45.638;11.714;2023-03-12T10:37:24;5.30;;;2.10;;
71648;SDS011;59492;45.638;11.714;2023-03-12T10:39:56;7.10;;;2.40;;
71648;SDS011;59492;45.638;11.714;2023-03-12T10:42:26;4.90;;;2.10;;
71648;SDS011;59492;45.638;11.714;2023-03-12T10:44:55;7.30;;;2.80;;
71648;SDS011;59492;45.638;11.714;2023-03-12T10:47:37;5.50;;;2.00;;
71648;SDS011;59492;45.638;11.714;2023-03-12T10:52:44;2.70;;;2.00;;
71648;SDS011;59492;45.638;11.714;2023-03-12T10:57:51;3.60;;;2.20;;
71648;SDS011;59492;45.638;11.714;2023-03-12T11:00:20;3.20;;;1.80;;
71648;SDS011;59492;45.638;11.714;2023-03-12T11:02:46;8.10;;;2.20;;
71648;SDS011;59492;45.638;11.714;2023-03-12T11:05:32;5.60;;;2.20;;
71648;SDS011;59492;45.638;11.714;2023-03-12T11:10:44;3.40;;;2.10;;
71648;SDS011;59492;45.638;11.714;2023-03-12T11:13:38;6.60;;;2.20;;
71648;SDS011;59492;45.638;11.714;2023-03-12T11:16:46;3.90;;;1.90;;
71648;SDS011;59492;45.638;11.714;2023-03-12T11:19:50;3.70;;;2.20;;
71648;SDS011;59492;45.638;11.714;2023-03-12T11:22:32;2.90;;;1.80;;
71648;SDS011;59492;45.638;11.714;2023-03-12T11:27:35;4.80;;;2.10;;
71648;SDS011;59492;45.638;11.714;2023-03-12T11:30:49;4.00;;;1.90;;
71648;SDS011;59492;45.638;11.714;2023-03-12T11:33:21;5.70;;;2.00;;
71648;SDS011;59492;45.638;11.714;2023-03-12T11:45:43;5.60;;;2.40;;
71648;SDS011;59492;45.638;11.714;2023-03-12T11:48:44;4.00;;;2.60;;
71648;SDS011;59492;45.638;11.714;2023-03-12T12:13:44;3.60;;;2.20;;
71648;SDS011;59492;45.638;11.714;2023-03-12T12:22:12;4.00;;;2.30;;
71648;SDS011;59492;45.638;11.714;2023-03-12T12:25:09;4.90;;;2.50;;
71648;SDS011;59492;45.638;11.714;2023-03-12T12:36:55;10.10;;;4.20;;
71648;SDS011;59492;45.638;11.714;2023-03-12T12:39:47;11.00;;;3.80;;
71648;SDS011;59492;45.638;11.714;2023-03-12T12:42:39;13.20;;;4.10;;
71648;SDS011;59492;45.638;11.714;2023-03-12T12:45:28;14.30;;;4.70;;
71648;SDS011;59492;45.638;11.714;2023-03-12T12:51:00;10.20;;;4.40;;
71648;SDS011;59492;45.638;11.714;2023-03-12T12:56:31;10.90;;;4.10;;
71648;SDS011;59492;45.638;11.714;2023-03-12T12:59:29;7.30;;;4.00;;
71648;SDS011;59492;45.638;11.714;2023-03-12T13:02:25;7.40;;;3.80;;
71648;SDS011;59492;45.638;11.714;2023-03-12T13:04:56;8.40;;;3.70;;
71648;SDS011;59492;45.638;11.714;2023-03-12T13:12:30;11.30;;;3.70;;
71648;SDS011;59492;45.638;11.714;2023-03-12T13:14:57;10.80;;;4.50;;
71648;SDS011;59492;45.638;11.714;2023-03-12T13:17:26;8.50;;;3.90;;
71648;SDS011;59492;45.638;11.714;2023-03-12T13:19:58;6.90;;;3.60;;
71648;SDS011;59492;45.638;11.714;2023-03-12T13:26:30;7.20;;;3.30;;
71648;SDS011;59492;45.638;11.714;2023-03-12T13:29:45;5.40;;;3.40;;
71648;SDS011;59492;45.638;11.714;2023-03-12T13:32:37;7.80;;;3.30;;
71648;SDS011;59492;45.638;11.714;2023-03-12T13:35:31;6.00;;;2.90;;
71648;SDS011;59492;45.638;11.714;2023-03-12T13:38:03;5.70;;;3.50;;
71648;SDS011;59492;45.638;11.714;2023-03-12T13:40:34;5.20;;;3.30;;
71648;SDS011;59492;45.638;11.714;2023-03-12T13:43:47;7.20;;;3.40;;
71648;SDS011;59492;45.638;11.714;2023-03-12T13:46:45;4.40;;;2.90;;
71648;SDS011;59492;45.638;11.714;2023-03-12T13:49:25;5.60;;;2.80;;
71648;SDS011;59492;45.638;11.714;2023-03-12T13:52:24;6.70;;;3.00;;
71648;SDS011;59492;45.638;11.714;2023-03-12T13:55:23;6.80;;;2.90;;
71648;SDS011;59492;45.638;11.714;2023-03-12T13:58:07;5.10;;;2.60;;
71648;SDS011;59492;45.638;11.714;2023-03-12T14:03:40;4.10;;;2.40;;
71648;SDS011;59492;45.638;11.714;2023-03-12T14:06:15;6.10;;;3.00;;
71648;SDS011;59492;45.638;11.714;2023-03-12T14:08:53;4.80;;;3.10;;
71648;SDS011;59492;45.638;11.714;2023-03-12T14:17:44;4.00;;;2.60;;
71648;SDS011;59492;45.638;11.714;2023-03-12T14:20:23;4.50;;;2.60;;
71648;SDS011;59492;45.638;11.714;2023-03-12T14:22:50;4.00;;;2.50;;
71648;SDS011;59492;45.638;11.714;2023-03-12T14:28:24;4.20;;;2.70;;
71648;SDS011;59492;45.638;11.714;2023-03-12T14:30:57;8.00;;;2.90;;
71648;SDS011;59492;45.638;11.714;2023-03-12T14:33:26;4.20;;;2.40;;
71648;SDS011;59492;45.638;11.714;2023-03-12T14:36:14;4.70;;;2.60;;
71648;SDS011;59492;45.638;11.714;2023-03-12T14:38:43;7.40;;;2.60;;
71648;SDS011;59492;45.638;11.714;2023-03-12T14:41:30;4.20;;;3.20;;
71648;SDS011;59492;45.638;11.714;2023-03-12T14:44:19;3.00;;;2.50;;
71648;SDS011;59492;45.638;11.714;2023-03-12T14:46:54;5.80;;;2.70;;
71648;SDS011;59492;45.638;11.714;2023-03-12T14:49:21;6.80;;;2.30;;
71648;SDS011;59492;45.638;11.714;2023-03-12T14:51:47;7.60;;;2.80;;
71648;SDS011;59492;45.638;11.714;2023-03-12T14:54:16;8.70;;;3.20;;
71648;SDS011;59492;45.638;11.714;2023-03-12T14:56:43;5.10;;;3.10;;
71648;SDS011;59492;45.638;11.714;2023-03-12T14:59:28;7.60;;;3.00;;
71648;SDS011;59492;45.638;11.714;2023-03-12T15:01:59;10.20;;;2.90;;
71648;SDS011;59492;45.638;11.714;2023-03-12T15:04:28;4.40;;;2.50;;
71648;SDS011;59492;45.638;11.714;2023-03-12T15:06:58;3.60;;;2.80;;
71648;SDS011;59492;45.638;11.714;2023-03-12T15:09:29;6.70;;;2.60;;
71648;SDS011;59492;45.638;11.714;2023-03-12T15:12:02;4.50;;;2.70;;
71648;SDS011;59492;45.638;11.714;2023-03-12T15:14:31;4.80;;;3.00;;
71648;SDS011;59492;45.638;11.714;2023-03-12T15:17:04;4.50;;;2.70;;
71648;SDS011;59492;45.638;11.714;2023-03-12T15:19:35;8.60;;;2.90;;
71648;SDS011;59492;45.638;11.714;2023-03-12T15:22:13;5.50;;;2.80;;
71648;SDS011;59492;45.638;11.714;2023-03-12T15:24:45;7.60;;;2.60;;
71648;SDS011;59492;45.638;11.714;2023-03-12T15:27:18;8.10;;;2.80;;
71648;SDS011;59492;45.638;11.714;2023-03-12T15:29:44;4.20;;;2.80;;
71648;SDS011;59492;45.638;11.714;2023-03-12T15:36:19;5.00;;;2.90;;
71648;SDS011;59492;45.638;11.714;2023-03-12T15:39:32;6.40;;;3.20;;
71648;SDS011;59492;45.638;11.714;2023-03-12T15:42:23;6.30;;;3.40;;
71648;SDS011;59492;45.638;11.714;2023-03-12T15:45:18;6.00;;;3.30;;
71648;SDS011;59492;45.638;11.714;2023-03-12T15:48:25;4.70;;;3.00;;
71648;SDS011;59492;45.638;11.714;2023-03-12T15:51:28;6.40;;;3.10;;
71648;SDS011;59492;45.638;11.714;2023-03-12T15:53:59;7.30;;;3.10;;
71648;SDS011;59492;45.638;11.714;2023-03-12T15:56:45;6.30;;;3.20;;
71648;SDS011;59492;45.638;11.714;2023-03-12T16:01:43;5.90;;;3.10;;
71648;SDS011;59492;45.638;11.714;2023-03-12T16:04:11;6.90;;;3.30;;
71648;SDS011;59492;45.638;11.714;2023-03-12T16:06:36;8.00;;;3.00;;
71648;SDS011;59492;45.638;11.714;2023-03-12T16:09:02;5.00;;;2.70;;
71648;SDS011;59492;45.638;11.714;2023-03-12T16:14:22;6.90;;;2.70;;
71648;SDS011;59492;45.638;11.714;2023-03-12T16:16:53;8.10;;;2.40;;
71648;SDS011;59492;45.638;11.714;2023-03-12T16:19:20;6.40;;;2.90;;
71648;SDS011;59492;45.638;11.714;2023-03-12T16:21:47;6.20;;;2.70;;
71648;SDS011;59492;45.638;11.714;2023-03-12T16:24:13;5.70;;;2.90;;
71648;SDS011;59492;45.638;11.714;2023-03-12T16:26:58;4.80;;;2.60;;
71648;SDS011;59492;45.638;11.714;2023-03-12T16:29:26;6.00;;;2.60;;
71648;SDS011;59492;45.638;11.714;2023-03-12T16:31:57;3.10;;;2.20;;
71648;SDS011;59492;45.638;11.714;2023-03-12T16:34:23;7.10;;;2.60;;
71648;SDS011;59492;45.638;11.714;2023-03-12T16:36:51;3.30;;;2.60;;
71648;SDS011;59492;45.638;11.714;2023-03-12T16:39:19;5.40;;;2.40;;
71648;SDS011;59492;45.638;11.714;2023-03-12T16:41:45;3.30;;;2.00;;
71648;SDS011;59492;45.638;11.714;2023-03-12T16:44:18;3.50;;;2.30;;
71648;SDS011;59492;45.638;11.714;2023-03-12T16:47:04;4.20;;;3.10;;
71648;SDS011;59492;45.638;11.714;2023-03-12T16:49:33;4.90;;;2.40;;
71648;SDS011;59492;45.638;11.714;2023-03-12T16:51:59;4.60;;;2.40;;
71648;SDS011;59492;45.638;11.714;2023-03-12T16:54:42;3.70;;;2.30;;
71648;SDS011;59492;45.638;11.714;2023-03-12T16:57:10;5.20;;;2.70;;
71648;SDS011;59492;45.638;11.714;2023-03-12T16:59:47;4.30;;;2.30;;
71648;SDS011;59492;45.638;11.714;2023-03-12T17:02:15;4.20;;;2.60;;
71648;SDS011;59492;45.638;11.714;2023-03-12T17:04:42;4.70;;;2.40;;
71648;SDS011;59492;45.638;11.714;2023-03-12T17:07:09;5.40;;;2.70;;
71648;SDS011;59492;45.638;11.714;2023-03-12T17:09:35;5.90;;;2.50;;
71648;SDS011;59492;45.638;11.714;2023-03-12T17:12:01;3.70;;;2.30;;
71648;SDS011;59492;45.638;11.714;2023-03-12T17:14:27;4.90;;;2.40;;
71648;SDS011;59492;45.638;11.714;2023-03-12T17:16:55;4.30;;;2.50;;
71648;SDS011;59492;45.638;11.714;2023-03-12T17:19:20;4.20;;;2.10;;
71648;SDS011;59492;45.638;11.714;2023-03-12T17:21:46;4.70;;;2.80;;
71648;SDS011;59492;45.638;11.714;2023-03-12T17:24:13;5.80;;;2.30;;
71648;SDS011;59492;45.638;11.714;2023-03-12T17:26:39;4.50;;;2.40;;
71648;SDS011;59492;45.638;11.714;2023-03-12T17:29:07;4.70;;;2.50;;
71648;SDS011;59492;45.638;11.714;2023-03-12T17:31:33;6.90;;;2.70;;
71648;SDS011;59492;45.638;11.714;2023-03-12T17:34:01;9.90;;;3.00;;
71648;SDS011;59492;45.638;11.714;2023-03-12T17:36:28;6.60;;;2.80;;
71648;SDS011;59492;45.638;11.714;2023-03-12T17:38:54;5.70;;;2.50;;
71648;SDS011;59492;45.638;11.714;2023-03-12T17:41:21;4.60;;;3.10;;
71648;SDS011;59492;45.638;11.714;2023-03-12T17:43:47;8.70;;;3.40;;
71648;SDS011;59492;45.638;11.714;2023-03-12T17:46:12;9.30;;;3.50;;
71648;SDS011;59492;45.638;11.714;2023-03-12T17:48:38;8.80;;;3.30;;
71648;SDS011;59492;45.638;11.714;2023-03-12T17:51:32;5.10;;;3.30;;
71648;SDS011;59492;45.638;11.714;2023-03-12T17:54:20;5.90;;;3.30;;
71648;SDS011;59492;45.638;11.714;2023-03-12T17:56:46;6.30;;;3.30;;
71648;SDS011;59492;45.638;11.714;2023-03-12T17:59:12;5.40;;;3.50;;
71648;SDS011;59492;45.638;11.714;2023-03-12T18:01:38;5.20;;;3.00;;
71648;SDS011;59492;45.638;11.714;2023-03-12T18:04:03;6.30;;;3.40;;
71648;SDS011;59492;45.638;11.714;2023-03-12T18:06:29;9.90;;;3.60;;
71648;SDS011;59492;45.638;11.714;2023-03-12T18:08:55;7.50;;;3.50;;
71648;SDS011;59492;45.638;11.714;2023-03-12T18:11:20;7.00;;;3.50;;
71648;SDS011;59492;45.638;11.714;2023-03-12T18:13:46;7.30;;;3.40;;
71648;SDS011;59492;45.638;11.714;2023-03-12T18:16:12;10.20;;;3.60;;
71648;SDS011;59492;45.638;11.714;2023-03-12T18:18:39;4.60;;;3.30;;
71648;SDS011;59492;45.638;11.714;2023-03-12T18:21:05;4.60;;;3.30;;
71648;SDS011;59492;45.638;11.714;2023-03-12T18:23:30;5.90;;;3.40;;
71648;SDS011;59492;45.638;11.714;2023-03-12T18:25:57;5.20;;;3.20;;